createdAt,value
2023-02-15T00:00:02.646Z,26.33
2023-02-15T00:02:29.275Z,27.50
2023-02-15T00:04:57.274Z,27.57
2023-02-15T00:07:24.414Z,22.73
2023-02-15T00:09:51.029Z,29.90
2023-02-15T00:12:20.169Z,24.83
2023-02-15T00:14:46.800Z,24.40
2023-02-15T00:17:13.442Z,24.20
2023-02-15T00:19:41.106Z,27.30
2023-02-15T00:22:13.904Z,29.10
2023-02-15T00:24:40.611Z,27.00
2023-02-15T00:27:07.295Z,25.97
2023-02-15T00:29:34.177Z,24.93
2023-02-15T00:32:00.908Z,25.97
2023-02-15T00:34:28.663Z,27.23
2023-02-15T00:36:55.422Z,25.50
2023-02-15T00:39:22.363Z,27.97
2023-02-15T00:41:49.027Z,22.13
2023-02-15T00:44:16.197Z,28.60
2023-02-15T00:46:43.006Z,26.77
2023-02-15T00:49:13.818Z,25.57
2023-02-15T00:51:40.623Z,25.20
2023-02-15T00:54:07.611Z,25.70
2023-02-15T00:56:34.388Z,28.03
2023-02-15T00:59:01.030Z,27.07
2023-02-15T01:01:27.815Z,26.07
2023-02-15T01:03:54.548Z,26.83
2023-02-15T01:06:21.346Z,21.23
2023-02-15T01:08:48.339Z,21.17
2023-02-15T01:11:23.005Z,22.50
2023-02-15T01:13:55.257Z,22.13
2023-02-15T01:16:22.566Z,23.37
2023-02-15T01:18:49.471Z,18.13
2023-02-15T01:21:18.094Z,19.57
2023-02-15T01:23:44.925Z,22.20
2023-02-15T01:26:11.552Z,17.67
2023-02-15T01:28:38.834Z,20.87
2023-02-15T01:31:13.954Z,21.33
2023-02-15T01:33:40.802Z,23.23
2023-02-15T01:36:07.563Z,23.90
2023-02-15T01:38:35.598Z,21.10
2023-02-15T01:41:21.024Z,23.83
2023-02-15T01:43:50.056Z,20.60
2023-02-15T01:46:19.092Z,20.10
2023-02-15T01:48:48.860Z,18.17
2023-02-15T01:51:19.973Z,21.07
2023-02-15T01:53:55.326Z,19.03
2023-02-15T01:56:24.989Z,18.50
2023-02-15T01:58:54.526Z,18.87
2023-02-15T02:01:21.393Z,18.13
2023-02-15T02:04:12.108Z,16.53
2023-02-15T02:06:40.047Z,19.73
2023-02-15T02:09:07.118Z,19.10
2023-02-15T02:11:34.365Z,18.77
2023-02-15T02:14:01.069Z,22.47
2023-02-15T02:16:52.545Z,22.13
2023-02-15T02:19:40.699Z,25.00
2023-02-15T02:22:22.312Z,22.90
2023-02-15T02:25:10.428Z,32.03
2023-02-15T02:28:05.924Z,28.80
2023-02-15T02:30:57.943Z,28.00
2023-02-15T02:33:34.708Z,25.90
2023-02-15T02:36:18.595Z,24.27
2023-02-15T02:38:59.750Z,26.05
2023-02-15T02:41:44.498Z,26.47
2023-02-15T02:44:18.426Z,27.37
2023-02-15T02:46:53.742Z,22.30
2023-02-15T02:49:37.810Z,23.77
2023-02-15T02:52:07.932Z,20.45
2023-02-15T02:54:36.556Z,26.67
2023-02-15T02:57:05.620Z,22.07
2023-02-15T02:59:35.062Z,22.07
2023-02-15T03:02:33.177Z,23.33
2023-02-15T03:05:04.641Z,28.90
2023-02-15T03:07:32.793Z,22.97
2023-02-15T03:10:01.767Z,26.47
2023-02-15T03:12:30.958Z,25.23
2023-02-15T03:15:05.281Z,24.97
2023-02-15T03:20:04.305Z,23.03
2023-02-15T03:22:41.764Z,28.50
2023-02-15T03:25:12.418Z,22.33
2023-02-15T03:27:42.303Z,24.67
2023-02-15T03:30:10.164Z,27.87
2023-02-15T03:32:37.555Z,28.00
2023-02-15T03:35:04.529Z,24.67
2023-02-15T03:37:44.864Z,28.07
2023-02-15T03:40:36.153Z,31.30
2023-02-15T03:43:18.282Z,29.97
2023-02-15T03:45:55.521Z,30.97
2023-02-15T03:48:25.882Z,25.67
2023-02-15T03:51:14.149Z,27.73
2023-02-15T03:53:41.292Z,27.63
2023-02-15T03:56:07.876Z,30.10
2023-02-15T03:58:53.181Z,28.17
2023-02-15T04:01:57.070Z,28.93
2023-02-15T04:04:27.258Z,26.63
2023-02-15T04:06:53.885Z,26.20
2023-02-15T04:09:39.124Z,24.63
2023-02-15T04:12:07.452Z,29.33
2023-02-15T04:14:52.908Z,29.67
2023-02-15T04:17:19.496Z,31.27
2023-02-15T04:20:04.746Z,32.13
2023-02-15T04:22:49.834Z,31.60
2023-02-15T04:25:16.480Z,27.40
2023-02-15T04:27:51.295Z,31.03
2023-02-15T04:30:19.496Z,30.10
2023-02-15T04:32:46.378Z,26.20
2023-02-15T04:35:13.718Z,30.17
2023-02-15T04:37:41.350Z,33.43
2023-02-15T04:40:10.406Z,32.23
2023-02-15T04:42:37.171Z,32.67
2023-02-15T04:45:04.201Z,31.00
2023-02-15T04:47:31.293Z,32.77
2023-02-15T04:49:58.253Z,30.03
2023-02-15T04:52:25.728Z,30.17
2023-02-15T04:54:52.414Z,29.53
2023-02-15T04:57:19.071Z,31.50
2023-02-15T04:59:45.712Z,39.57
2023-02-15T05:02:15.375Z,31.80
2023-02-15T05:04:42.023Z,29.87
2023-02-15T05:07:08.728Z,30.20
2023-02-15T05:09:35.410Z,33.83
2023-02-15T05:12:02.114Z,31.43
2023-02-15T05:14:28.832Z,32.30
2023-02-15T05:16:55.528Z,27.77
2023-02-15T05:19:24.181Z,25.90
2023-02-15T05:21:50.789Z,34.63
2023-02-15T05:24:36.160Z,27.23
2023-02-15T05:27:21.479Z,31.37
2023-02-15T05:29:48.137Z,33.43
2023-02-15T05:32:15.300Z,33.90
2023-02-15T05:34:42.125Z,30.10
2023-02-15T05:37:09.363Z,32.80
2023-02-15T05:39:35.977Z,40.83
2023-02-15T05:42:03.393Z,37.73
2023-02-15T05:44:30.436Z,41.43
2023-02-15T05:46:57.017Z,34.03
2023-02-15T05:49:23.731Z,35.33
2023-02-15T05:51:50.357Z,36.93
2023-02-15T05:54:17.334Z,36.57
2023-02-15T05:56:43.969Z,38.67
2023-02-15T05:59:10.744Z,42.90
2023-02-15T06:01:37.361Z,42.43
2023-02-15T06:04:06.170Z,40.67
2023-02-15T06:06:32.777Z,46.53
2023-02-15T06:08:59.403Z,44.23
2023-02-15T06:11:26.031Z,44.67
2023-02-15T06:13:53.007Z,48.20
2023-02-15T06:16:19.776Z,45.07
2023-02-15T06:18:46.473Z,41.60
2023-02-15T06:21:13.224Z,49.17
2023-02-15T06:23:39.873Z,43.93
2023-02-15T06:26:06.503Z,42.43
2023-02-15T06:28:33.804Z,44.43
2023-02-15T06:31:00.489Z,48.07
2023-02-15T06:33:27.223Z,47.53
2023-02-15T06:35:53.886Z,52.83
2023-02-15T06:38:21.423Z,46.20
2023-02-15T06:40:50.740Z,46.87
2023-02-15T06:43:17.368Z,51.40
2023-02-15T06:45:44.072Z,43.40
2023-02-15T06:48:13.530Z,50.90
2023-02-15T06:50:40.662Z,51.60
2023-02-15T06:53:07.386Z,49.63
2023-02-15T06:55:35.202Z,49.80
2023-02-15T06:58:05.033Z,47.53
2023-02-15T07:00:31.669Z,46.03
2023-02-15T07:02:59.688Z,52.23
2023-02-15T07:05:32.058Z,47.93
2023-02-15T07:07:59.742Z,52.80
2023-02-15T07:10:27.327Z,51.87
2023-02-15T07:12:54.506Z,49.60
2023-02-15T07:15:21.970Z,50.03
2023-02-15T07:17:49.557Z,47.27
2023-02-15T07:20:19.574Z,51.53
2023-02-15T07:22:46.361Z,39.63
2023-02-15T07:25:14.016Z,46.67
2023-02-15T07:27:41.205Z,47.67
2023-02-15T07:30:10.316Z,49.10
2023-02-15T07:32:37.069Z,49.70
2023-02-15T07:35:03.755Z,47.53
2023-02-15T07:37:30.394Z,48.27
2023-02-15T07:39:57.127Z,50.77
2023-02-15T07:42:24.059Z,52.10
2023-02-15T07:44:51.036Z,45.00
2023-02-15T07:47:17.700Z,55.57
2023-02-15T07:49:44.554Z,48.60
2023-02-15T07:52:11.329Z,50.93
2023-02-15T07:54:37.991Z,47.73
2023-02-15T07:57:05.383Z,55.27
2023-02-15T07:59:32.312Z,49.83
2023-02-15T08:01:58.969Z,52.37
2023-02-15T08:04:25.629Z,49.87
2023-02-15T08:06:55.921Z,56.43
2023-02-15T08:09:22.932Z,58.73
2023-02-15T08:11:50.157Z,59.10
2023-02-15T08:14:21.369Z,55.33
2023-02-15T08:16:50.310Z,53.40
2023-02-15T08:19:25.592Z,54.37
2023-02-15T08:21:54.608Z,55.30
2023-02-15T08:24:23.282Z,52.43
2023-02-15T08:26:50.988Z,51.27
2023-02-15T08:29:19.867Z,58.13
2023-02-15T08:31:46.943Z,65.70
2023-02-15T08:34:17.158Z,73.43
2023-02-15T08:36:46.069Z,64.47
2023-02-15T08:39:14.498Z,60.00
2023-02-15T08:41:43.946Z,60.40
2023-02-15T08:44:11.694Z,56.70
2023-02-15T08:46:40.471Z,53.00
2023-02-15T08:49:07.147Z,60.30
2023-02-15T08:51:36.201Z,53.63
2023-02-15T08:54:08.200Z,57.90
2023-02-15T08:56:37.053Z,54.57
2023-02-15T08:59:04.553Z,57.73
2023-02-15T09:01:33.256Z,56.00
2023-02-15T09:04:02.491Z,54.57
2023-02-15T09:06:29.656Z,52.07
2023-02-15T09:08:57.193Z,58.03
2023-02-15T09:11:31.831Z,53.70
2023-02-15T09:14:14.593Z,51.90
2023-02-15T09:16:43.092Z,52.40
2023-02-15T09:19:09.911Z,50.03
2023-02-15T09:21:38.998Z,60.73
2023-02-15T09:24:13.374Z,50.67
2023-02-15T09:26:42.148Z,85.13
2023-02-15T09:29:09.820Z,54.27
2023-02-15T09:31:42.518Z,45.60
2023-02-15T09:34:09.435Z,57.13
2023-02-15T09:36:38.487Z,51.30
2023-02-15T09:39:17.024Z,58.23
2023-02-15T09:42:02.547Z,57.00
2023-02-15T09:44:44.531Z,61.50
2023-02-15T09:47:23.329Z,59.63
2023-02-15T09:50:03.437Z,50.30
2023-02-15T09:53:01.266Z,52.97
2023-02-15T09:55:40.264Z,61.10
2023-02-15T09:58:28.781Z,55.40
2023-02-15T10:01:14.461Z,57.10
2023-02-15T10:03:59.773Z,55.93
2023-02-15T10:06:57.897Z,56.90
2023-02-15T10:09:43.679Z,47.87
2023-02-15T10:12:32.711Z,48.70
2023-02-15T10:15:14.842Z,52.07
2023-02-15T10:18:04.990Z,54.03
2023-02-15T10:20:41.330Z,47.43
2023-02-15T10:23:28.203Z,43.77
2023-02-15T10:26:06.215Z,53.50
2023-02-15T10:28:47.628Z,49.17
2023-02-15T10:31:25.805Z,46.90
2023-02-15T10:34:04.244Z,42.03
2023-02-15T10:36:41.604Z,45.33
2023-02-15T10:39:10.838Z,49.60
2023-02-15T10:42:05.308Z,41.57
2023-02-15T10:44:44.315Z,52.67
2023-02-15T10:47:29.010Z,42.53
2023-02-15T10:50:17.902Z,44.30
2023-02-15T10:53:15.705Z,41.37
2023-02-15T10:56:08.093Z,42.30
2023-02-15T10:58:53.203Z,45.70
2023-02-15T11:01:43.118Z,47.77
2023-02-15T11:04:45.415Z,52.40
2023-02-15T11:07:22.930Z,53.20
2023-02-15T11:09:58.218Z,45.67
2023-02-15T11:12:26.104Z,41.83
2023-02-15T11:15:17.572Z,45.70
2023-02-15T11:17:48.274Z,51.50
2023-02-15T11:20:24.380Z,46.17
2023-02-15T11:23:19.641Z,40.00
2023-02-15T11:25:53.787Z,42.20
2023-02-15T11:28:24.724Z,40.42
2023-02-15T11:30:55.863Z,41.53
2023-02-15T11:33:27.579Z,41.13
2023-02-15T11:35:59.592Z,45.37
2023-02-15T11:38:30.084Z,45.40
2023-02-15T11:41:01.099Z,44.60
2023-02-15T11:43:43.066Z,43.20
2023-02-15T11:46:12.957Z,45.27
2023-02-15T11:48:40.159Z,37.67
2023-02-15T11:51:10.045Z,53.97
2023-02-15T11:53:38.786Z,45.93
2023-02-15T11:56:07.193Z,50.20
2023-02-15T11:58:38.753Z,42.60
2023-02-15T12:01:33.582Z,44.73
2023-02-15T12:04:22.799Z,44.17
2023-02-15T12:06:54.561Z,39.57
2023-02-15T12:09:42.247Z,38.17
2023-02-15T12:12:27.382Z,40.30
2023-02-15T12:14:56.457Z,44.10
2023-02-15T12:17:26.077Z,42.40
2023-02-15T12:19:54.338Z,40.70
2023-02-15T12:22:26.859Z,40.53
2023-02-15T12:25:00.554Z,47.20
2023-02-15T12:27:34.468Z,45.10
2023-02-15T12:30:22.602Z,36.97
2023-02-15T12:32:52.938Z,45.10
2023-02-15T12:35:29.025Z,40.30
2023-02-15T12:37:58.342Z,44.53
2023-02-15T12:40:31.330Z,41.70
2023-02-15T12:42:58.756Z,40.92
2023-02-15T12:45:33.832Z,39.50
2023-02-15T12:48:17.318Z,43.53
2023-02-15T12:50:55.042Z,40.50
2023-02-15T12:53:24.567Z,37.17
2023-02-15T12:56:08.578Z,38.83
2023-02-15T12:58:39.949Z,42.47
2023-02-15T13:01:09.676Z,43.67
2023-02-15T13:03:36.994Z,39.53
2023-02-15T13:06:08.288Z,38.03
2023-02-15T13:08:39.315Z,46.23
2023-02-15T13:11:11.058Z,48.37
2023-02-15T13:13:56.007Z,46.67
2023-02-15T13:16:31.608Z,42.77
2023-02-15T13:18:58.785Z,47.03
2023-02-15T13:21:28.112Z,41.60
2023-02-15T13:24:02.604Z,42.10
2023-02-15T13:26:32.968Z,34.53
2023-02-15T13:29:30.042Z,37.23
2023-02-15T13:31:59.129Z,35.03
2023-02-15T13:34:37.517Z,38.90
2023-02-15T13:37:11.573Z,37.93
2023-02-15T13:39:46.133Z,38.10
2023-02-15T13:42:24.315Z,37.97
2023-02-15T13:45:24.395Z,38.57
2023-02-15T13:48:02.283Z,38.20
2023-02-15T13:50:35.662Z,33.90
2023-02-15T13:53:08.221Z,39.60
2023-02-15T13:55:39.929Z,34.77
2023-02-15T13:58:24.908Z,37.97
2023-02-15T14:00:59.593Z,34.80
2023-02-15T14:03:39.140Z,35.87
2023-02-15T14:06:38.164Z,34.33
2023-02-15T14:09:35.755Z,35.33
2023-02-15T14:12:27.355Z,32.60
2023-02-15T14:15:01.434Z,39.53
2023-02-15T14:17:47.238Z,39.78
2023-02-15T14:20:32.017Z,38.37
2023-02-15T14:23:12.117Z,37.73
2023-02-15T14:25:49.473Z,37.93
2023-02-15T14:28:27.548Z,34.73
2023-02-15T14:30:54.474Z,36.37
2023-02-15T14:33:38.800Z,39.17
2023-02-15T14:36:08.174Z,38.95
2023-02-15T14:39:41.929Z,33.93
2023-02-15T14:42:19.347Z,32.50
2023-02-15T14:45:13.877Z,35.33
2023-02-15T14:47:44.736Z,36.50
2023-02-15T14:50:38.303Z,35.30
2023-02-15T14:53:32.067Z,31.60
2023-02-15T14:56:19.156Z,34.70
2023-02-15T14:58:53.198Z,38.27
2023-02-15T15:02:09.299Z,33.95
2023-02-15T15:04:38.820Z,36.87
2023-02-15T15:07:13.103Z,37.47
2023-02-15T15:09:41.736Z,38.20
2023-02-15T15:12:23.583Z,35.13
2023-02-15T15:14:52.895Z,34.23
2023-02-15T15:17:39.218Z,39.33
2023-02-15T15:20:19.253Z,35.30
2023-02-15T15:22:45.931Z,31.00
2023-02-15T15:25:42.041Z,29.47
2023-02-15T15:28:08.883Z,41.10
2023-02-15T15:30:35.547Z,32.07
2023-02-15T15:33:30.721Z,35.03
2023-02-15T15:36:27.150Z,41.00
2023-02-15T15:38:59.881Z,35.67
2023-02-15T15:41:54.461Z,32.20
2023-02-15T15:45:12.069Z,43.38
2023-02-15T15:47:38.703Z,36.53
2023-02-15T15:50:14.153Z,39.60
2023-02-15T15:52:45.447Z,39.77
2023-02-15T15:55:18.352Z,33.07
2023-02-15T15:57:49.359Z,34.40
2023-02-15T16:00:32.210Z,38.13
2023-02-15T16:02:58.940Z,32.17
2023-02-15T16:05:25.981Z,33.83
2023-02-15T16:07:52.643Z,34.93
2023-02-15T16:10:27.786Z,29.67
2023-02-15T16:12:55.767Z,34.07
2023-02-15T16:15:32.075Z,36.20
2023-02-15T16:17:59.794Z,35.80
2023-02-15T16:20:33.016Z,36.13
2023-02-15T16:23:13.730Z,37.53
2023-02-15T16:26:03.991Z,31.80
2023-02-15T16:28:30.923Z,35.60
2023-02-15T16:31:08.588Z,34.10
2023-02-15T16:33:38.449Z,38.03
2023-02-15T16:36:08.805Z,41.03
2023-02-15T16:38:41.470Z,33.90
2023-02-15T16:41:08.461Z,34.70
2023-02-15T16:43:35.177Z,39.70
2023-02-15T16:46:06.524Z,41.03
2023-02-15T16:48:34.716Z,39.73
2023-02-15T16:51:01.931Z,40.27
2023-02-15T16:53:29.788Z,34.27
2023-02-15T16:55:58.518Z,33.60
2023-02-15T16:58:39.333Z,33.17
2023-02-15T17:01:08.821Z,36.87
2023-02-15T17:03:36.758Z,33.33
2023-02-15T17:06:04.499Z,36.33
2023-02-15T17:08:38.048Z,34.53
2023-02-15T17:11:19.253Z,35.40
2023-02-15T17:14:05.076Z,32.93
2023-02-15T17:16:34.300Z,37.67
2023-02-15T17:19:03.229Z,33.50
2023-02-15T17:21:33.877Z,36.33
2023-02-15T17:24:02.305Z,34.37
2023-02-15T17:26:32.055Z,39.10
2023-02-15T17:29:12.358Z,41.30
2023-02-15T17:31:39.260Z,36.83
2023-02-15T17:34:06.137Z,40.77
2023-02-15T17:36:32.962Z,38.10
2023-02-15T17:38:59.626Z,38.43
2023-02-15T17:41:28.253Z,39.07
2023-02-15T17:43:54.905Z,35.53
2023-02-15T17:46:24.894Z,31.17
2023-02-15T17:48:53.179Z,38.03
2023-02-15T17:51:20.729Z,35.40
2023-02-15T17:54:07.117Z,39.40
2023-02-15T17:56:34.710Z,33.70
2023-02-15T17:59:01.452Z,31.93
2023-02-15T18:01:46.795Z,33.47
2023-02-15T18:04:33.645Z,34.97
2023-02-15T18:07:18.916Z,41.73
2023-02-15T18:10:04.218Z,33.03
2023-02-15T18:12:36.698Z,38.23
2023-02-15T18:15:03.768Z,39.50
2023-02-15T18:17:34.616Z,34.03
2023-02-15T18:20:05.591Z,37.83
2023-02-15T18:22:32.929Z,37.13
2023-02-15T18:24:59.674Z,37.60
2023-02-15T18:27:26.278Z,38.67
2023-02-15T18:29:52.890Z,36.43
2023-02-15T18:32:29.427Z,42.60
2023-02-15T18:34:57.680Z,43.57
2023-02-15T18:37:25.536Z,42.63
2023-02-15T18:39:54.266Z,38.53
2023-02-15T18:42:26.988Z,37.23
2023-02-15T18:44:58.634Z,39.67
2023-02-15T18:47:25.512Z,39.00
2023-02-15T18:49:52.277Z,32.50
2023-02-15T18:52:24.352Z,41.13
2023-02-15T18:54:55.137Z,33.77
2023-02-15T18:57:21.873Z,38.40
2023-02-15T18:59:48.510Z,38.27
2023-02-15T19:02:17.714Z,37.57
2023-02-15T19:04:45.231Z,44.10
2023-02-15T19:07:29.879Z,40.33
2023-02-15T19:12:23.745Z,42.30
2023-02-15T19:14:52.942Z,40.37
2023-02-15T19:17:21.533Z,40.23
2023-02-15T19:19:48.259Z,37.57
2023-02-15T19:22:30.376Z,38.33
2023-02-15T19:25:00.311Z,37.97
2023-02-15T19:27:34.910Z,40.60
2023-02-15T19:30:03.682Z,39.67
2023-02-15T19:32:31.165Z,41.43
2023-02-15T19:34:57.826Z,43.20
2023-02-15T19:37:35.101Z,42.23
2023-02-15T19:40:02.030Z,49.40
2023-02-15T19:42:28.870Z,48.70
2023-02-15T19:44:55.531Z,49.47
2023-02-15T19:47:22.177Z,46.53
2023-02-15T19:49:48.827Z,46.83
2023-02-15T19:52:21.043Z,46.40
2023-02-15T19:54:48.397Z,35.00
2023-02-15T19:57:15.004Z,45.53
2023-02-15T19:59:42.142Z,41.53
2023-02-15T20:02:18.081Z,45.07
2023-02-15T20:04:44.871Z,37.53
2023-02-15T20:07:28.469Z,38.93
2023-02-15T20:09:55.421Z,42.37
2023-02-15T20:12:26.267Z,38.23
2023-02-15T20:14:53.137Z,40.87
2023-02-15T20:17:19.977Z,35.80
2023-02-15T20:19:46.758Z,34.87
2023-02-15T20:22:24.300Z,35.87
2023-02-15T20:24:51.770Z,33.10
2023-02-15T20:27:18.939Z,38.07
2023-02-15T20:29:45.559Z,34.40
2023-02-15T20:32:12.622Z,35.27
2023-02-15T20:34:39.420Z,32.77
2023-02-15T20:37:06.232Z,41.40
2023-02-15T20:39:35.108Z,45.07
2023-02-15T20:42:02.106Z,34.33
2023-02-15T20:44:31.267Z,43.07
2023-02-15T20:47:00.375Z,32.63
2023-02-15T20:49:27.860Z,43.87
2023-02-15T20:51:56.297Z,35.50
2023-02-15T20:54:24.517Z,35.83
2023-02-15T20:56:56.845Z,29.70
2023-02-15T20:59:32.008Z,35.30
2023-02-15T21:02:02.154Z,32.83
2023-02-15T21:04:32.808Z,34.73
2023-02-15T21:07:00.718Z,35.20
2023-02-15T21:09:28.507Z,38.37
2023-02-15T21:11:59.184Z,40.03
2023-02-15T21:14:27.143Z,33.90
2023-02-15T21:16:54.187Z,35.30
2023-02-15T21:19:22.597Z,37.80
2023-02-15T21:21:51.484Z,33.90
2023-02-15T21:24:28.763Z,31.73
2023-02-15T21:27:01.244Z,34.33
2023-02-15T21:29:30.391Z,38.83
2023-02-15T21:32:01.397Z,41.97
2023-02-15T21:34:29.787Z,32.80
2023-02-15T21:36:56.485Z,35.87
2023-02-15T21:39:30.653Z,35.53
2023-02-15T21:42:22.241Z,33.38
2023-02-15T21:45:09.709Z,37.00
2023-02-15T21:47:51.677Z,31.73
2023-02-15T21:50:40.292Z,38.53
2023-02-15T21:53:13.154Z,34.50
2023-02-15T21:55:39.822Z,33.43
2023-02-15T21:58:06.710Z,38.17
2023-02-15T22:00:35.002Z,35.33
2023-02-15T22:03:05.132Z,37.93
2023-02-15T22:05:33.905Z,37.27
2023-02-15T22:08:00.914Z,34.30
2023-02-15T22:10:32.736Z,32.53
2023-02-15T22:13:03.592Z,33.07
2023-02-15T22:15:37.062Z,35.50
2023-02-15T22:18:05.199Z,30.85
2023-02-15T22:20:32.178Z,29.67
2023-02-15T22:22:59.090Z,31.80
2023-02-15T22:25:27.060Z,29.70
2023-02-15T22:27:54.354Z,31.00
2023-02-15T22:30:24.008Z,29.50
2023-02-15T22:32:50.664Z,31.87
2023-02-15T22:35:21.254Z,29.40
2023-02-15T22:37:48.127Z,30.47
2023-02-15T22:40:16.372Z,30.17
2023-02-15T22:42:47.042Z,27.57
2023-02-15T22:45:19.279Z,29.13
2023-02-15T22:47:50.858Z,30.80
2023-02-15T22:50:22.801Z,24.67
2023-02-15T22:52:50.038Z,29.13
2023-02-15T22:55:22.213Z,28.70
2023-02-15T22:57:51.652Z,25.43
2023-02-15T23:00:26.826Z,28.30
2023-02-15T23:02:54.733Z,27.40
2023-02-15T23:05:24.569Z,31.50
2023-02-15T23:07:51.420Z,29.57
2023-02-15T23:10:22.587Z,30.03
2023-02-15T23:13:12.218Z,24.83
2023-02-15T23:15:39.839Z,26.37
2023-02-15T23:18:19.280Z,28.47
2023-02-15T23:20:49.456Z,29.23
2023-02-15T23:23:16.463Z,31.93
2023-02-15T23:25:43.420Z,29.87
2023-02-15T23:28:22.829Z,38.17
2023-02-15T23:30:49.577Z,30.40
2023-02-15T23:33:16.436Z,35.97
2023-02-15T23:35:43.096Z,31.97
2023-02-15T23:38:18.957Z,32.43
2023-02-15T23:41:11.253Z,35.87
2023-02-15T23:43:40.974Z,31.03
2023-02-15T23:46:08.396Z,28.63
2023-02-15T23:48:37.783Z,32.33
2023-02-15T23:51:06.364Z,27.83
2023-02-15T23:53:33.209Z,32.53
2023-02-15T23:56:00.002Z,37.00
2023-02-15T23:58:38.136Z,36.10
